Time;durP1;ratioP1;P1;durP2;ratioP2;P2;SDS_P1;SDS_P2;PMS_P1;PMS_P2;Temp;Humidity;BMP_temperature;BMP_pressure;BME280_temperature;BME280_humidity;BME280_pressure;Samples;Min_cycle;Max_cycle;Signal;HPM_P1;HPM_P2
2022/06/11 00:00:32;;;;;;;4.70;2.95;;;17.30;62.10;;;17.79;51.17;98216.94;5042419;28;20054;-53
2022/06/11 00:03:00;;;;;;;5.07;3.42;;;17.30;61.90;;;17.77;51.22;98217.13;5043514;28;20052;-48
2022/06/11 00:05:28;;;;;;;5.72;3.63;;;17.30;62.10;;;17.73;51.46;98223.13;5043320;28;20051;-51
2022/06/11 00:07:57;;;;;;;3.60;3.00;;;17.20;62.30;;;17.73;51.42;98229.31;5043200;28;20048;-48
2022/06/11 00:10:25;;;;;;;4.53;2.90;;;17.20;62.20;;;17.70;51.55;98230.56;5042174;28;20370;-52
2022/06/11 00:12:53;;;;;;;3.65;2.92;;;17.20;63.20;;;17.67;51.60;98228.22;5043076;28;20056;-47
2022/06/11 00:15:21;;;;;;;5.63;3.60;;;17.20;62.40;;;17.63;51.66;98226.94;5043010;28;20045;-50
2022/06/11 00:17:49;;;;;;;3.92;3.35;;;17.20;62.70;;;17.60;51.92;98218.41;5043398;28;20072;-48
2022/06/11 00:20:17;;;;;;;4.72;3.35;;;17.10;63.20;;;17.56;52.10;98222.53;5043292;28;20045;-48
2022/06/11 00:22:45;;;;;;;5.60;3.00;;;17.10;63.50;;;17.54;52.19;98222.72;5043232;28;20049;-49
2022/06/11 00:25:13;;;;;;;6.70;3.50;;;17.10;63.50;;;17.50;52.14;98224.13;5043042;28;20055;-51
2022/06/11 00:27:41;;;;;;;6.05;3.70;;;17.10;63.70;;;17.45;52.51;98222.03;5041778;28;20045;-49
2022/06/11 00:30:11;;;;;;;4.30;3.47;;;17.00;63.80;;;17.38;52.59;98221.09;5041825;28;20075;-50
2022/06/11 00:32:40;;;;;;;4.47;2.78;;;16.90;64.10;;;17.39;52.15;98208.47;5042795;28;20061;-48
2022/06/11 00:35:10;;;;;;;6.65;2.80;;;16.90;63.60;;;17.39;52.00;98219.25;5043485;28;20049;-48
2022/06/11 00:37:39;;;;;;;6.80;3.50;;;16.90;63.10;;;17.41;51.78;98220.75;5042523;28;20053;-50
2022/06/11 00:40:08;;;;;;;5.38;3.15;;;17.00;62.70;;;17.39;52.01;98213.84;5042766;28;20049;-48
2022/06/11 00:42:37;;;;;;;5.18;3.88;;;17.00;62.80;;;17.35;52.33;98213.44;5043149;28;20358;-50
2022/06/11 00:45:25;;;;;;;4.97;2.97;;;16.90;63.10;;;17.30;52.33;98213.97;5042169;28;20053;-50
2022/06/11 00:48:02;;;;;;;5.88;3.17;;;16.90;63.90;;;17.27;52.31;98217.06;5042989;28;20078;-50
2022/06/11 00:50:41;;;;;;;3.85;2.75;;;16.80;63.40;;;17.25;52.50;98223.66;5042394;28;20037;-48
2022/06/11 00:53:33;;;;;;;3.05;2.72;;;16.80;63.60;;;17.24;52.72;98219.31;5042692;28;20052;-48
2022/06/11 00:56:06;;;;;;;7.57;3.83;;;16.90;63.50;;;17.23;52.57;98214.94;5041366;28;20041;-51
2022/06/11 00:58:42;;;;;;;5.85;3.67;;;16.90;63.10;;;17.24;52.47;98208.53;5042344;28;20041;-53
2022/06/11 01:01:10;;;;;;;3.20;2.90;;;16.90;62.90;;;17.27;52.24;98210.84;5042424;28;20049;-50
2022/06/11 01:03:43;;;;;;;5.32;3.10;;;17.00;62.60;;;17.25;52.34;98211.06;5042560;28;20336;-51
2022/06/11 01:06:25;;;;;;;;;;;16.90;62.80;;;17.19;52.58;98201.03;5043196;28;20046;-49
2022/06/11 01:09:14;;;;;;;3.85;3.05;;;16.90;63.80;;;17.26;52.31;98201.13;5042141;28;19917;-49
2022/06/11 01:12:24;;;;;;;4.72;3.10;;;16.90;62.80;;;17.32;52.00;98203.88;5042358;28;20242;-51
2022/06/11 01:15:28;;;;;;;5.40;3.10;;;17.00;62.10;;;17.38;51.87;98198.75;5041158;28;20045;-50
2022/06/11 01:18:28;;;;;;;4.78;3.13;;;17.10;61.80;;;17.42;51.68;98202.72;5041011;28;20056;-48
2022/06/11 01:21:36;;;;;;;6.43;2.90;;;17.20;61.50;;;17.41;51.73;98201.91;5042019;28;20049;-49
2022/06/11 01:24:45;;;;;;;4.97;3.65;;;17.20;61.30;;;17.42;51.49;98200.84;5040945;28;20059;-50
2022/06/11 01:27:36;;;;;;;9.52;6.13;;;17.10;61.40;;;17.41;51.63;98204.59;5042617;28;20053;-50
2022/06/11 01:30:21;;;;;;;7.07;3.65;;;17.10;61.30;;;17.43;51.46;98194.47;5042067;28;20235;-50
2022/06/11 01:33:22;;;;;;;5.82;3.00;;;17.10;60.90;;;17.46;51.45;98202.13;5042284;28;20063;-50
2022/06/11 01:36:24;;;;;;;4.82;2.90;;;17.20;61.00;;;17.47;51.51;98198.44;5040752;28;20053;-48
2022/06/11 01:39:20;;;;;;;5.10;3.13;;;17.20;60.90;;;17.48;51.48;98196.56;5042035;28;20045;-48
2022/06/11 01:42:18;;;;;;;4.00;2.80;;;17.20;60.80;;;17.48;51.53;98199.25;5041920;28;20055;-51
2022/06/11 01:44:57;;;;;;;6.07;3.00;;;17.20;60.80;;;17.50;51.51;98198.03;5041881;28;20045;-48
2022/06/11 01:47:25;;;;;;;5.60;2.80;;;17.30;60.50;;;17.51;51.42;98201.59;5042246;28;20052;-48
2022/06/11 01:49:53;;;;;;;4.30;2.90;;;17.30;60.40;;;17.54;51.38;98201.19;5042483;28;20045;-49
2022/06/11 01:52:43;;;;;;;5.05;2.83;;;17.30;60.40;;;17.52;51.30;98206.78;5042148;28;20228;-50
2022/06/11 01:55:44;;;;;;;3.08;2.70;;;17.30;61.10;;;17.50;51.35;98198.03;5041431;28;20061;-51
2022/06/11 01:59:07;;;;;;;5.13;3.33;;;17.20;61.20;;;17.45;51.37;98199.66;5041660;28;20049;-51
2022/06/11 02:01:55;;;;;;;4.70;3.40;;;17.10;61.70;;;17.38;51.44;98199.56;5041703;28;20049;-50
2022/06/11 02:04:39;;;;;;;4.18;3.20;;;17.00;61.30;;;17.35;51.77;98191.03;5041746;28;20350;-49
2022/06/11 02:07:42;;;;;;;5.63;3.50;;;16.90;62.60;;;17.25;52.15;98192.22;5041828;28;20247;-49
2022/06/11 02:10:37;;;;;;;5.50;3.10;;;16.90;63.60;;;17.15;52.37;98190.84;5040672;28;20347;-51
2022/06/11 02:13:14;;;;;;;6.03;3.20;;;16.70;64.00;;;17.03;52.51;98191.34;5041985;28;20058;-49
2022/06/11 02:16:12;;;;;;;5.07;2.67;;;16.60;63.90;;;16.95;53.30;98186.06;5040810;28;20050;-49
2022/06/11 02:18:41;;;;;;;4.50;3.28;;;16.50;65.20;;;16.93;52.67;98190.81;5040149;28;20052;-49
2022/06/11 02:21:16;;;;;;;4.22;3.08;;;16.50;64.10;;;16.89;52.96;98190.34;5040717;28;20051;-46
2022/06/11 02:24:02;;;;;;;5.20;3.35;;;16.50;64.30;;;16.86;53.11;98197.94;5040593;28;20053;-47
2022/06/11 02:26:43;;;;;;;4.25;3.17;;;16.40;64.50;;;16.82;53.34;98194.78;5040765;28;20041;-49
2022/06/11 02:29:17;;;;;;;6.50;3.83;;;16.40;64.60;;;16.80;53.29;98194.13;5040193;28;20065;-50
2022/06/11 02:32:09;;;;;;;3.95;3.08;;;16.40;64.40;;;16.80;53.41;98193.28;5041418;28;20051;-49
2022/06/11 02:34:55;;;;;;;3.80;3.00;;;16.40;64.50;;;16.79;53.41;98189.78;5041737;28;20045;-50
2022/06/11 02:37:49;;;;;;;8.07;3.45;;;16.40;64.40;;;16.76;53.87;98194.69;5043935;28;20045;-46
2022/06/11 02:40:23;;;;;;;4.05;2.70;;;16.40;65.00;;;16.76;53.61;98192.00;5044885;28;20356;-48
2022/06/11 02:42:51;;;;;;;;;;;16.40;64.30;;;16.70;53.84;98189.03;5045408;28;20049;-47
2022/06/11 02:45:20;;;;;;;3.50;2.67;;;16.40;65.20;;;16.77;53.31;98190.97;5045221;28;19916;-48
2022/06/11 02:47:50;;;;;;;5.20;3.20;;;16.40;64.30;;;16.77;53.43;98190.97;5044638;28;20060;-48
2022/06/11 02:50:30;;;;;;;3.63;2.90;;;16.40;64.10;;;16.76;53.30;98202.75;5045222;28;20053;-50
2022/06/11 02:53:00;;;;;;;5.90;3.53;;;16.40;64.50;;;16.76;53.50;98200.06;5044986;28;20038;-46
2022/06/11 02:55:29;;;;;;;3.95;3.47;;;16.40;64.10;;;16.74;53.29;98190.31;5044756;28;20052;-47
2022/06/11 02:57:58;;;;;;;5.43;3.55;;;16.40;64.10;;;16.74;53.18;98202.94;5044241;28;20045;-49
2022/06/11 03:00:37;;;;;;;6.10;4.38;;;16.40;64.10;;;16.72;53.49;98203.13;5044777;28;20056;-49
2022/06/11 03:03:07;;;;;;;5.72;4.10;;;16.30;64.60;;;16.64;53.78;98194.34;5044749;28;20239;-50
2022/06/11 03:05:38;;;;;;;7.38;4.65;;;16.20;65.70;;;16.56;53.96;98214.09;5044561;28;20051;-48
2022/06/11 03:08:07;;;;;;;7.47;4.78;;;16.00;66.00;;;16.49;54.08;98213.97;5043912;28;20049;-47
2022/06/11 03:10:36;;;;;;;5.53;3.65;;;15.90;66.30;;;16.43;54.14;98219.25;5044548;28;20041;-48
2022/06/11 03:13:06;;;;;;;5.63;4.10;;;15.90;66.30;;;16.42;54.05;98218.44;5044270;28;20071;-50
2022/06/11 03:15:35;;;;;;;5.78;3.83;;;16.00;66.20;;;16.44;54.01;98218.22;5044330;28;20041;-48
2022/06/11 03:18:03;;;;;;;5.35;3.38;;;16.00;65.80;;;16.44;54.02;98221.78;5044103;28;20247;-51
2022/06/11 03:20:32;;;;;;;4.40;3.33;;;16.10;65.70;;;16.45;54.13;98218.03;5044401;28;20053;-50
2022/06/11 03:23:00;;;;;;;3.83;3.00;;;16.10;65.50;;;16.45;54.06;98217.22;5044357;28;20049;-47
2022/06/11 03:25:27;;;;;;;4.22;3.28;;;16.10;65.50;;;16.47;54.29;98226.75;5043484;28;20053;-47
2022/06/11 03:27:57;;;;;;;5.07;4.10;;;16.10;65.40;;;16.46;54.24;98216.19;5043793;28;20357;-50
2022/06/11 03:30:26;;;;;;;4.53;3.25;;;16.20;65.30;;;16.44;54.40;98226.28;5044059;28;20340;-51
2022/06/11 03:32:54;;;;;;;4.60;3.00;;;16.10;65.50;;;16.44;54.31;98223.59;5044653;28;20350;-49
2022/06/11 03:35:22;;;;;;;5.68;2.83;;;16.10;65.70;;;16.41;54.35;98232.06;5043808;28;20332;-48
2022/06/11 03:37:50;;;;;;;4.35;3.00;;;16.00;65.80;;;16.41;54.48;98230.19;5043794;28;20052;-52
2022/06/11 03:40:18;;;;;;;4.72;3.53;;;16.00;65.90;;;16.41;54.42;98232.88;5043750;28;20053;-50
2022/06/11 03:42:46;;;;;;;4.47;3.35;;;16.00;66.10;;;16.23;54.67;98229.72;5043832;28;20049;-47
2022/06/11 03:45:14;;;;;;;3.85;3.47;;;15.80;67.70;;;16.14;55.14;98232.47;5043076;28;20051;-49
2022/06/11 03:47:43;;;;;;;7.00;3.65;;;15.60;68.10;;;16.05;55.21;98230.91;5043132;28;20055;-49
2022/06/11 03:50:21;;;;;;;4.00;3.50;;;15.50;68.50;;;16.07;55.21;98234.22;5043478;28;20362;-51
2022/06/11 03:52:49;;;;;;;3.95;3.17;;;15.70;68.60;;;16.09;55.30;98226.81;5042920;28;20053;-49
2022/06/11 03:55:18;;;;;;;3.72;3.22;;;15.70;68.10;;;16.13;55.38;98238.88;5044099;28;20075;-47
2022/06/11 03:57:46;;;;;;;4.15;3.38;;;15.80;67.80;;;16.13;55.47;98238.03;5042891;28;20091;-48
2022/06/11 04:01:14;;;;;;;5.45;3.33;;;15.80;67.80;;;16.13;55.32;98240.72;5044608;28;20049;-47
2022/06/11 04:03:13;;;;;;;4.38;3.80;;;15.80;68.00;;;16.14;55.37;98247.75;5043935;28;20049;-51
2022/06/11 04:05:43;;;;;;;6.65;3.50;;;15.80;67.80;;;16.11;55.47;98251.66;5043479;28;20050;-46
2022/06/11 04:08:13;;;;;;;6.15;4.13;;;15.70;69.00;;;16.10;55.42;98254.50;5043249;28;20049;-48
2022/06/11 04:10:42;;;;;;;3.53;3.00;;;15.70;68.50;;;16.10;55.68;98258.03;5042970;28;20045;-46
2022/06/11 04:13:11;;;;;;;4.70;2.83;;;15.70;68.50;;;16.08;55.81;98256.53;5043597;28;20057;-48
2022/06/11 04:15:41;;;;;;;4.55;4.03;;;15.70;68.80;;;16.07;55.95;98255.72;5043044;28;20052;-48
2022/06/11 04:18:21;;;;;;;5.05;3.13;;;15.70;69.10;;;16.07;55.82;98260.22;5043337;28;20052;-51
2022/06/11 04:20:49;;;;;;;5.75;3.15;;;15.70;68.80;;;16.11;55.83;98256.16;5042273;28;20046;-46
2022/06/11 04:23:17;;;;;;;6.20;3.30;;;15.80;68.90;;;16.15;56.06;98252.13;5043057;28;20053;-46
2022/06/11 04:25:45;;;;;;;5.20;3.38;;;15.80;68.70;;;16.18;55.88;98251.75;5042905;28;20041;-48
2022/06/11 04:28:13;;;;;;;5.10;3.00;;;15.90;68.50;;;16.20;56.00;98251.56;5042927;28;20049;-50
2022/06/11 04:30:41;;;;;;;7.07;3.88;;;15.90;68.50;;;16.20;55.84;98255.06;5042965;28;20041;-49
2022/06/11 04:33:09;;;;;;;4.18;2.83;;;15.90;68.40;;;16.19;56.00;98261.47;5042823;28;20251;-47
2022/06/11 04:35:37;;;;;;;6.45;3.00;;;15.90;68.60;;;16.16;55.96;98256.47;5043046;28;20059;-48
2022/06/11 04:38:05;;;;;;;5.25;3.50;;;15.80;68.80;;;16.17;56.06;98251.91;5042572;28;20047;-49
2022/06/11 04:40:33;;;;;;;3.38;2.85;;;15.80;69.00;;;16.19;56.41;98258.78;5042769;28;20049;-48
2022/06/11 04:43:01;;;;;;;3.60;2.90;;;15.90;68.90;;;16.20;56.35;98257.75;5043023;28;20247;-46
2022/06/11 04:45:29;;;;;;;3.55;2.92;;;15.90;68.80;;;16.23;56.25;98262.78;5042226;28;20053;-52
2022/06/11 04:47:57;;;;;;;7.60;3.53;;;15.90;68.70;;;16.27;56.31;98271.31;5042641;28;20057;-50
2022/06/11 04:50:26;;;;;;;3.67;3.25;;;16.00;68.40;;;16.28;56.34;98267.59;5042692;28;20251;-48
2022/06/11 04:52:54;;;;;;;6.60;3.75;;;16.00;68.20;;;16.33;56.10;98271.41;5042719;28;20045;-51
2022/06/11 04:55:22;;;;;;;4.82;3.20;;;16.10;68.20;;;16.33;56.17;98274.09;5042621;28;20063;-48
2022/06/11 04:57:50;;;;;;;3.35;3.05;;;16.10;68.20;;;16.29;56.33;98277.34;5042055;28;20041;-48
2022/06/11 05:00:24;;;;;;;3.70;3.10;;;16.00;68.40;;;16.30;56.35;98274.47;5042632;28;20056;-50
2022/06/11 05:02:53;;;;;;;6.47;3.03;;;16.10;68.60;;;16.38;56.47;98278.94;5042642;28;20348;-51
2022/06/11 05:05:22;;;;;;;4.65;3.03;;;16.20;68.40;;;16.44;56.25;98277.34;5042058;28;20065;-47
2022/06/11 05:07:50;;;;;;;5.10;2.88;;;16.20;68.20;;;16.48;56.43;98281.38;5042303;28;20049;-49
2022/06/11 05:10:27;;;;;;;4.88;2.72;;;16.30;68.40;;;16.54;56.50;98275.25;5042413;28;20057;-45
2022/06/11 05:12:55;;;;;;;3.72;2.97;;;16.40;68.40;;;16.59;56.18;98278.19;5041432;28;20052;-51
2022/06/11 05:15:24;;;;;;;3.90;3.13;;;16.50;67.80;;;16.61;56.10;98281.53;5042211;28;20064;-48
2022/06/11 05:17:52;;;;;;;3.85;3.45;;;16.50;67.90;;;16.66;56.08;98289.06;5042034;28;20041;-49
2022/06/11 05:20:20;;;;;;;5.68;3.30;;;16.50;67.70;;;16.69;55.98;98292.22;5042145;28;20045;-50
2022/06/11 05:22:49;;;;;;;4.30;2.88;;;16.50;67.50;;;16.71;56.09;98290.19;5042360;28;20055;-51
2022/06/11 05:25:19;;;;;;;4.82;3.10;;;16.60;67.50;;;16.81;55.86;98287.22;5042775;28;20064;-51
2022/06/11 05:27:47;;;;;;;6.38;2.90;;;16.70;67.20;;;16.84;55.90;98294.94;5041612;28;20124;-49
2022/06/11 05:30:29;;;;;;;4.85;3.45;;;16.70;67.00;;;16.91;55.82;98297.72;5040855;28;20362;-49
2022/06/11 05:33:00;;;;;;;5.45;3.38;;;16.80;67.40;;;16.97;55.89;98301.53;5042105;28;20045;-50
2022/06/11 05:35:32;;;;;;;3.90;3.20;;;16.90;67.10;;;17.00;56.00;98298.44;5041964;28;20047;-53
2022/06/11 05:38:06;;;;;;;4.25;3.47;;;16.90;67.20;;;16.99;56.02;98299.50;5042252;28;20391;-51
2022/06/11 05:40:40;;;;;;;5.07;3.03;;;16.90;67.60;;;17.01;56.20;98300.13;5042041;28;20081;-48
2022/06/11 05:43:09;;;;;;;4.60;3.30;;;16.90;67.70;;;17.01;56.20;98300.97;5041057;28;20050;-52
2022/06/11 05:45:43;;;;;;;5.88;3.55;;;16.90;67.60;;;17.09;55.85;98302.72;5041631;28;20041;-47
2022/06/11 05:48:13;;;;;;;5.05;3.30;;;17.00;67.20;;;17.15;55.68;98306.53;5040799;28;20063;-49
2022/06/11 05:50:48;;;;;;;7.55;3.40;;;17.00;66.90;;;17.19;55.81;98303.25;5041009;28;20047;-50
2022/06/11 05:53:18;;;;;;;4.03;3.13;;;17.10;67.00;;;17.24;55.74;98306.22;5040831;28;20324;-48
2022/06/11 05:55:49;;;;;;;4.88;2.75;;;17.20;66.60;;;17.32;55.51;98305.28;5040656;28;20052;-50
2022/06/11 05:58:32;;;;;;;6.20;2.83;;;17.20;66.20;;;17.37;55.58;98294.81;5040675;28;20046;-47
2022/06/11 06:01:01;;;;;;;6.45;3.65;;;17.30;65.90;;;17.45;55.20;98299.25;5040890;28;20045;-48
2022/06/11 06:03:29;;;;;;;3.50;2.90;;;17.40;65.50;;;17.52;55.18;98306.38;5042027;28;20255;-50
2022/06/11 06:05:57;;;;;;;3.53;3.03;;;17.50;65.40;;;17.59;55.09;98309.13;5041662;28;20158;-47
2022/06/11 06:08:25;;;;;;;3.85;2.40;;;17.60;65.10;;;17.66;54.82;98304.66;5041512;28;20041;-47
2022/06/11 06:10:52;;;;;;;7.22;3.10;;;17.70;64.90;;;17.72;54.41;98300.38;5045085;28;20049;-47
2022/06/11 06:16:07;;;;;;;3.70;3.15;;;17.80;64.00;;;17.81;54.43;98306.47;5045137;28;20056;-49
2022/06/11 06:18:35;;;;;;;5.10;3.42;;;17.80;63.70;;;17.88;54.38;98310.91;5045259;28;20065;-49
2022/06/11 06:21:04;;;;;;;7.38;3.35;;;17.90;63.70;;;17.95;53.92;98311.00;5044341;28;20060;-49
2022/06/11 06:23:33;;;;;;;5.10;3.25;;;18.00;63.00;;;17.99;53.88;98306.91;5045495;28;20055;-48
2022/06/11 06:26:02;;;;;;;4.88;3.67;;;18.10;62.60;;;18.05;53.61;98311.50;5044170;28;20053;-50
2022/06/11 06:28:32;;;;;;;5.95;3.20;;;18.10;62.40;;;18.14;53.65;98308.69;5043789;28;20049;-49
2022/06/11 06:31:02;;;;;;;3.65;2.80;;;18.20;62.50;;;18.19;53.59;98314.34;5045312;28;20057;-47
2022/06/11 06:33:31;;;;;;;5.57;3.45;;;18.30;62.30;;;18.23;53.51;98316.44;5045148;28;20044;-47
2022/06/11 06:36:02;;;;;;;5.35;2.80;;;18.30;62.30;;;18.25;53.37;98321.63;5045613;28;20055;-50
2022/06/11 06:38:30;;;;;;;5.97;3.35;;;18.40;61.70;;;18.26;52.88;98324.13;5043897;28;20401;-49
2022/06/11 06:40:58;;;;;;;4.72;3.60;;;18.40;61.00;;;18.34;52.86;98325.00;5044746;28;20049;-50
2022/06/11 06:43:26;;;;;;;4.78;3.00;;;18.40;61.20;;;18.38;52.57;98320.91;5045052;28;20049;-47
2022/06/11 06:45:54;;;;;;;4.25;2.97;;;18.50;60.70;;;18.44;52.42;98322.84;5044187;28;20359;-47
2022/06/11 06:48:22;;;;;;;4.35;2.95;;;18.60;60.30;;;18.49;52.22;98320.38;5044732;28;20045;-51
2022/06/11 06:50:50;;;;;;;4.20;3.10;;;18.70;60.30;;;18.54;52.16;98323.31;5044860;28;20050;-47
2022/06/11 06:53:18;;;;;;;5.80;3.25;;;18.70;60.00;;;18.59;51.89;98328.13;5044788;28;20041;-48
2022/06/11 06:55:45;;;;;;;6.03;3.15;;;18.70;59.80;;;18.60;52.22;98327.94;5044710;28;20050;-48
2022/06/11 06:58:15;;;;;;;4.30;3.50;;;18.70;60.00;;;18.62;52.30;98328.56;5044451;28;20052;-50
2022/06/11 07:00:46;;;;;;;4.80;2.95;;;18.80;60.10;;;18.67;51.92;98330.69;5045488;28;20052;-53
2022/06/11 07:03:15;;;;;;;7.80;3.05;;;18.80;59.60;;;18.72;52.04;98327.38;5044848;28;20046;-48
2022/06/11 07:05:43;;;;;;;4.32;2.72;;;18.90;59.70;;;18.79;51.87;98329.09;5044601;28;20055;-49
2022/06/11 07:08:13;;;;;;;4.80;2.70;;;18.90;59.70;;;18.86;51.71;98321.06;5044399;28;20056;-49
2022/06/11 07:10:52;;;;;;;3.88;3.03;;;19.00;59.30;;;18.92;51.50;98322.16;5044375;28;20045;-54
2022/06/11 07:13:21;;;;;;;4.53;3.08;;;19.00;58.90;;;18.93;52.24;98321.13;5044296;28;20044;-49
2022/06/11 07:15:54;;;;;;;6.10;3.25;;;19.10;60.00;;;18.99;52.49;98323.84;5044390;28;20044;-49
2022/06/11 07:18:29;;;;;;;;;;;19.10;60.70;;;18.97;52.31;98327.78;5045231;28;20046;-49
2022/06/11 07:20:59;;;;;;;5.25;3.25;;;19.20;59.60;;;19.06;52.37;98324.75;5044830;28;19924;-53
2022/06/11 07:23:40;;;;;;;4.65;2.85;;;19.30;60.40;;;19.13;52.38;98323.94;5043324;28;20053;-51
2022/06/11 07:26:16;;;;;;;8.50;5.78;;;19.30;60.20;;;19.16;52.28;98324.38;5044438;28;20049;-50
2022/06/11 07:28:55;;;;;;;5.18;2.97;;;19.40;60.10;;;19.25;52.04;98327.72;5042933;28;20049;-50
2022/06/11 07:31:23;;;;;;;5.90;3.53;;;19.40;59.90;;;19.25;52.10;98320.47;5042982;28;20216;-49
2022/06/11 07:33:51;;;;;;;5.53;3.50;;;19.50;59.90;;;19.31;51.33;98324.25;5042979;28;20041;-51
2022/06/11 07:36:19;;;;;;;6.05;2.80;;;19.50;58.90;;;19.35;51.05;98316.56;5044172;28;20225;-48
2022/06/11 07:38:47;;;;;;;5.07;2.72;;;19.50;58.50;;;19.40;51.25;98319.50;5043725;28;20071;-48
2022/06/11 07:41:15;;;;;;;4.60;3.10;;;19.50;58.50;;;19.48;51.74;98322.00;5044054;28;20052;-48
2022/06/11 07:43:43;;;;;;;4.60;2.92;;;19.60;59.30;;;19.55;51.76;98319.34;5043464;28;20053;-50
2022/06/11 07:46:11;;;;;;;4.22;2.67;;;19.70;59.60;;;19.60;51.88;98323.13;5043864;28;20256;-50
2022/06/11 07:48:40;;;;;;;5.85;3.42;;;19.70;59.60;;;19.65;51.94;98325.19;5043553;28;20115;-50
2022/06/11 07:51:08;;;;;;;4.13;2.97;;;19.80;59.60;;;19.68;52.02;98322.09;5043830;28;20108;-51
2022/06/11 07:53:36;;;;;;;4.88;2.80;;;19.90;59.70;;;19.73;51.64;98321.50;5043546;28;20213;-49
2022/06/11 07:56:04;;;;;;;4.13;2.90;;;20.00;59.10;;;19.78;51.35;98327.97;5043514;28;20045;-48
2022/06/11 07:58:32;;;;;;;4.25;3.60;;;20.00;58.90;;;19.85;50.95;98328.84;5042345;28;20046;-46
2022/06/11 08:01:01;;;;;;;6.97;2.90;;;20.10;58.70;;;19.88;50.87;98327.56;5043694;28;20059;-46
2022/06/11 08:03:31;;;;;;;4.32;3.00;;;20.20;57.80;;;19.86;49.90;98326.94;5043358;28;20271;-49
2022/06/11 08:06:02;;;;;;;3.40;2.90;;;20.20;55.70;;;19.95;50.03;98333.84;5043388;28;20045;-47
2022/06/11 08:08:31;;;;;;;3.72;2.53;;;20.20;57.10;;;19.98;49.91;98329.88;5043354;28;20057;-50
2022/06/11 08:11:01;;;;;;;4.15;2.85;;;20.20;56.70;;;20.04;49.98;98327.19;5042558;28;20061;-48
2022/06/11 08:13:29;;;;;;;3.00;2.40;;;20.30;56.70;;;20.08;48.76;98330.31;5043331;28;20045;-48
2022/06/11 08:15:59;;;;;;;3.42;2.40;;;20.40;55.40;;;20.14;48.65;98329.50;5043952;28;20361;-47
2022/06/11 08:18:30;;;;;;;5.40;2.88;;;20.40;55.20;;;20.21;48.13;98322.22;5042986;28;20053;-49
2022/06/11 08:20:59;;;;;;;4.10;2.28;;;20.40;54.50;;;20.23;45.63;98330.13;5042871;28;20055;-50
2022/06/11 08:23:27;;;;;;;3.67;2.20;;;20.50;52.20;;;20.32;46.18;98328.91;5058099;28;20056;-52
2022/06/11 08:25:55;;;;;;;5.15;1.98;;;20.60;51.30;;;20.35;45.74;98324.94;5043079;28;20343;-47
2022/06/11 08:28:24;;;;;;;3.15;2.30;;;20.60;51.00;;;20.36;44.62;98326.63;5041789;28;20059;-48
2022/06/11 08:30:52;;;;;;;2.85;2.33;;;20.70;49.40;;;20.42;44.61;98340.13;5043154;28;20055;-48
2022/06/11 08:33:20;;;;;;;3.75;2.58;;;20.70;49.90;;;20.43;44.16;98327.44;5041234;28;20239;-51
2022/06/11 08:35:48;;;;;;;2.80;2.20;;;20.70;49.10;;;20.48;43.57;98334.94;5043380;28;20064;-52
2022/06/11 08:38:16;;;;;;;3.80;2.70;;;20.80;48.70;;;20.53;44.25;98337.81;5042682;28;20045;-47
2022/06/11 08:40:45;;;;;;;6.75;2.40;;;20.90;49.40;;;20.62;43.39;98342.03;5042760;28;20343;-47
2022/06/11 08:43:18;;;;;;;3.35;1.80;;;20.90;48.20;;;20.63;41.41;98338.28;5042761;28;20049;-48
2022/06/11 08:45:47;;;;;;;4.18;2.72;;;20.90;44.90;;;20.66;43.52;98335.16;5042645;28;20045;-52
2022/06/11 08:48:38;;;;;;;2.90;2.60;;;21.00;48.00;;;20.70;42.60;98339.09;5042159;28;20340;-48
2022/06/11 08:51:35;;;;;;;3.25;2.10;;;21.00;45.70;;;20.66;37.69;98329.75;5042798;28;20071;-51
2022/06/11 08:54:11;;;;;;;2.60;2.20;;;21.10;40.00;;;20.76;40.59;98332.03;5042486;28;20225;-48
2022/06/11 08:56:50;;;;;;;3.80;2.35;;;21.10;44.10;;;20.86;42.28;98340.56;5041630;28;20041;-49
2022/06/11 08:59:46;;;;;;;3.80;2.38;;;21.30;46.20;;;20.89;41.14;98328.47;5042258;28;20055;-48
2022/06/11 09:02:25;;;;;;;3.45;2.65;;;21.30;44.60;;;20.94;41.17;98323.28;5043371;28;20057;-51
2022/06/11 09:05:57;;;;;;;3.40;2.20;;;21.30;45.40;;;20.97;41.90;98320.94;5042381;28;20053;-46
2022/06/11 09:08:52;;;;;;;5.35;2.42;;;21.30;45.40;;;21.06;42.50;98323.44;5040037;28;20059;-47
2022/06/11 09:11:53;;;;;;;6.18;3.33;;;21.30;46.60;;;21.10;43.06;98320.09;5042535;28;20049;-53
2022/06/11 09:14:55;;;;;;;4.97;3.10;;;21.40;47.80;;;21.16;43.02;98315.72;5041990;28;20041;-49
2022/06/11 09:17:38;;;;;;;3.20;2.63;;;21.50;47.70;;;21.20;42.05;98315.06;5041734;28;20063;-50
2022/06/11 09:20:13;;;;;;;3.50;2.67;;;21.50;46.40;;;21.29;43.07;98306.72;5042321;28;20067;-48
2022/06/11 09:22:56;;;;;;;4.22;2.83;;;21.50;47.90;;;21.28;42.25;98310.47;5040974;28;20048;-48
2022/06/11 09:25:47;;;;;;;2.92;2.33;;;21.60;46.10;;;21.31;42.96;98313.56;5042092;28;20060;-47
2022/06/11 09:28:46;;;;;;;4.47;2.38;;;21.70;47.50;;;21.37;42.57;98306.47;5042251;28;20050;-53
2022/06/11 09:31:37;;;;;;;5.90;2.90;;;21.70;47.40;;;21.41;42.01;98305.00;5042132;28;20049;-47
2022/06/11 09:34:24;;;;;;;3.70;2.50;;;21.80;46.20;;;21.44;41.55;98301.88;5040757;28;20037;-50
2022/06/11 09:37:36;;;;;;;3.45;2.40;;;21.80;45.70;;;21.51;42.85;98301.88;5042182;28;20108;-49
2022/06/11 09:40:58;;;;;;;3.30;2.40;;;21.90;46.90;;;21.59;41.61;98302.44;5041703;28;20055;-49
2022/06/11 09:43:35;;;;;;;4.97;2.40;;;21.90;45.00;;;21.65;41.62;98308.03;5041476;28;20061;-51
2022/06/11 09:46:33;;;;;;;5.32;3.28;;;22.00;45.70;;;21.63;41.18;98302.84;5045806;28;20056;-52
2022/06/11 09:49:39;;;;;;;2.47;2.28;;;22.10;44.60;;;21.69;40.97;98310.09;5045652;28;20045;-48
2022/06/11 09:52:29;;;;;;;17.02;3.20;;;22.10;44.60;;;21.70;40.56;98306.34;5046175;28;20063;-50
2022/06/11 09:55:22;;;;;;;4.47;2.50;;;22.00;43.70;;;21.75;41.02;98303.81;5045591;28;20067;-49
2022/06/11 09:58:13;;;;;;;4.07;3.17;;;22.00;44.30;;;21.76;41.08;98302.75;5045327;28;20049;-52
2022/06/11 10:01:01;;;;;;;3.75;2.40;;;22.00;45.20;;;21.85;41.41;98305.22;5044768;28;20247;-50
2022/06/11 10:03:56;;;;;;;4.20;2.72;;;22.00;45.60;;;21.89;41.27;98306.44;5044828;28;20056;-48
2022/06/11 10:06:38;;;;;;;3.80;2.95;;;22.20;45.50;;;21.93;40.31;98305.78;5045706;28;20055;-48
2022/06/11 10:09:18;;;;;;;6.15;2.70;;;22.30;44.70;;;22.02;40.87;98304.50;5044599;28;20259;-52
2022/06/11 10:11:58;;;;;;;3.85;2.85;;;22.40;44.50;;;22.13;40.60;98304.84;5045489;28;20052;-46
2022/06/11 10:14:39;;;;;;;2.85;2.55;;;22.50;44.70;;;22.19;40.95;98301.22;5043963;28;20340;-51
2022/06/11 10:17:27;;;;;;;5.60;2.45;;;22.50;44.80;;;22.27;40.16;98303.69;5044865;28;20049;-51
2022/06/11 10:20:22;;;;;;;3.05;2.22;;;22.60;44.10;;;22.32;40.77;98303.88;5044630;28;20052;-51
2022/06/11 10:23:16;;;;;;;4.10;2.25;;;22.60;44.50;;;22.42;40.79;98301.50;5044641;28;20050;-51
2022/06/11 10:25:53;;;;;;;6.32;2.22;;;22.70;45.30;;;22.52;39.99;98303.69;5045131;28;20049;-48
2022/06/11 10:28:26;;;;;;;4.03;2.78;;;22.90;44.10;;;22.55;40.12;98300.56;5044795;28;20050;-49
2022/06/11 10:31:16;;;;;;;3.47;2.70;;;22.90;44.30;;;22.57;40.12;98309.31;5045055;28;20041;-50
2022/06/11 10:33:53;;;;;;;4.82;2.47;;;23.00;43.80;;;22.67;40.33;98311.50;5043323;28;20059;-50
2022/06/11 10:36:30;;;;;;;5.50;3.20;;;23.10;44.50;;;22.76;39.89;98310.19;5045235;28;20056;-52
2022/06/11 10:39:29;;;;;;;5.50;3.00;;;23.10;44.20;;;22.84;40.14;98313.63;5043973;28;20053;-49
2022/06/11 10:42:35;;;;;;;4.30;2.63;;;23.10;44.70;;;22.95;40.64;98310.19;5045031;28;20336;-49
2022/06/11 10:45:03;;;;;;;3.72;2.58;;;23.30;44.20;;;23.03;40.22;98303.66;5044666;28;20052;-48
2022/06/11 10:47:36;;;;;;;3.65;2.60;;;23.30;44.40;;;23.10;39.79;98304.44;5043415;28;20053;-52
2022/06/11 10:50:09;;;;;;;4.43;2.05;;;23.40;43.80;;;23.15;39.93;98307.31;5044954;28;20041;-50
2022/06/11 10:53:07;;;;;;;3.75;2.85;;;23.50;44.40;;;23.24;39.89;98310.53;5044863;28;20068;-48
2022/06/11 10:55:53;;;;;;;3.60;2.45;;;23.60;43.20;;;23.29;39.81;98300.66;5043818;28;20049;-52
2022/06/11 10:58:42;;;;;;;4.22;2.50;;;23.60;43.00;;;23.33;39.45;98292.88;5044510;28;20247;-49
2022/06/11 11:01:44;;;;;;;6.60;2.45;;;23.60;43.30;;;23.39;38.48;98298.22;5045037;28;20056;-50